sensor_id;sensor_type;location;lat;lon;timestamp;pressure;altitude;pressure_sealevel;temperature;humidity
11444;BME280;5778;47.856;12.154;2022-09-30T00:01:45;95423.13;;;8.82;100.00
11444;BME280;5778;47.856;12.154;2022-09-30T00:04:14;95424.44;;;8.79;100.00
11444;BME280;5778;47.856;12.154;2022-09-30T00:07:16;95425.00;;;8.76;100.00
11444;BME280;5778;47.856;12.154;2022-09-30T00:09:43;95419.69;;;8.76;100.00
11444;BME280;5778;47.856;12.154;2022-09-30T00:12:12;95416.78;;;8.78;100.00
11444;BME280;5778;47.856;12.154;2022-09-30T00:14:39;95417.81;;;8.82;100.00
11444;BME280;5778;47.856;12.154;2022-09-30T00:17:06;95426.84;;;8.81;100.00
11444;BME280;5778;47.856;12.154;2022-09-30T00:19:32;95421.81;;;8.84;100.00
11444;BME280;5778;47.856;12.154;2022-09-30T00:24:43;95427.66;;;8.86;100.00
11444;BME280;5778;47.856;12.154;2022-09-30T00:27:20;95425.28;;;8.90;100.00
11444;BME280;5778;47.856;12.154;2022-09-30T00:29:47;95432.16;;;8.91;100.00
11444;BME280;5778;47.856;12.154;2022-09-30T00:32:15;95435.38;;;8.88;100.00
11444;BME280;5778;47.856;12.154;2022-09-30T00:34:42;95449.63;;;8.82;100.00
11444;BME280;5778;47.856;12.154;2022-09-30T00:37:20;95453.09;;;8.82;100.00
11444;BME280;5778;47.856;12.154;2022-09-30T00:39:49;95459.72;;;8.85;100.00
11444;BME280;5778;47.856;12.154;2022-09-30T00:42:16;95460.00;;;8.83;100.00
11444;BME280;5778;47.856;12.154;2022-09-30T00:44:49;95463.97;;;8.86;100.00
11444;BME280;5778;47.856;12.154;2022-09-30T00:50:30;95471.13;;;8.90;100.00
11444;BME280;5778;47.856;12.154;2022-09-30T00:53:02;95460.00;;;8.93;100.00
11444;BME280;5778;47.856;12.154;2022-09-30T00:55:39;95464.50;;;8.93;100.00
11444;BME280;5778;47.856;12.154;2022-09-30T00:58:11;95461.06;;;8.87;100.00
11444;BME280;5778;47.856;12.154;2022-09-30T01:00:40;95463.19;;;8.80;100.00
11444;BME280;5778;47.856;12.154;2022-09-30T01:03:08;95468.22;;;8.77;100.00
11444;BME280;5778;47.856;12.154;2022-09-30T01:05:36;95465.25;;;8.73;100.00
11444;BME280;5778;47.856;12.154;2022-09-30T01:08:05;95459.72;;;8.80;100.00
11444;BME280;5778;47.856;12.154;2022-09-30T01:10:36;95459.97;;;8.78;100.00
11444;BME280;5778;47.856;12.154;2022-09-30T01:13:03;95459.47;;;8.86;100.00
11444;BME280;5778;47.856;12.154;2022-09-30T01:16:09;95466.88;;;8.89;100.00
11444;BME280;5778;47.856;12.154;2022-09-30T01:18:55;95460.53;;;8.85;100.00
11444;BME280;5778;47.856;12.154;2022-09-30T01:31:48;95449.13;;;8.85;100.00
11444;BME280;5778;47.856;12.154;2022-09-30T01:34:27;95459.22;;;8.93;100.00
11444;BME280;5778;47.856;12.154;2022-09-30T01:40:13;95457.13;;;9.00;100.00
11444;BME280;5778;47.856;12.154;2022-09-30T01:42:52;95464.03;;;9.06;100.00
11444;BME280;5778;47.856;12.154;2022-09-30T01:45:29;95465.34;;;9.03;100.00
11444;BME280;5778;47.856;12.154;2022-09-30T01:48:02;95467.19;;;9.03;100.00
11444;BME280;5778;47.856;12.154;2022-09-30T01:51:00;95473.03;;;9.00;100.00
11444;BME280;5778;47.856;12.154;2022-09-30T01:53:35;95473.53;;;8.97;100.00
11444;BME280;5778;47.856;12.154;2022-09-30T01:56:09;95477.75;;;8.83;100.00
11444;BME280;5778;47.856;12.154;2022-09-30T01:58:41;95478.28;;;8.80;100.00
11444;BME280;5778;47.856;12.154;2022-09-30T02:01:16;95481.75;;;8.85;100.00
11444;BME280;5778;47.856;12.154;2022-09-30T02:03:48;95480.16;;;8.89;100.00
11444;BME280;5778;47.856;12.154;2022-09-30T02:09:25;95484.13;;;8.92;100.00
11444;BME280;5778;47.856;12.154;2022-09-30T02:11:54;95475.66;;;8.95;100.00
11444;BME280;5778;47.856;12.154;2022-09-30T02:16:58;95474.88;;;8.99;100.00
11444;BME280;5778;47.856;12.154;2022-09-30T02:19:33;95480.72;;;9.06;100.00
11444;BME280;5778;47.856;12.154;2022-09-30T02:22:05;95480.19;;;9.04;100.00
11444;BME280;5778;47.856;12.154;2022-09-30T02:24:34;95483.38;;;8.96;100.00
11444;BME280;5778;47.856;12.154;2022-09-30T02:27:39;95480.16;;;8.99;100.00
11444;BME280;5778;47.856;12.154;2022-09-30T02:30:09;95481.00;;;9.05;100.00
11444;BME280;5778;47.856;12.154;2022-09-30T02:32:39;95485.50;;;9.09;100.00
11444;BME280;5778;47.856;12.154;2022-09-30T02:35:16;95481.00;;;9.05;100.00
11444;BME280;5778;47.856;12.154;2022-09-30T02:37:48;95479.91;;;9.01;100.00
11444;BME280;5778;47.856;12.154;2022-09-30T02:40:22;95484.44;;;9.05;100.00
11444;BME280;5778;47.856;12.154;2022-09-30T02:42:50;95486.28;;;9.05;100.00
11444;BME280;5778;47.856;12.154;2022-09-30T02:45:19;95494.75;;;8.97;100.00
11444;BME280;5778;47.856;12.154;2022-09-30T02:55:01;95488.91;;;8.95;100.00
11444;BME280;5778;47.856;12.154;2022-09-30T02:57:41;95496.91;;;9.00;100.00
11444;BME280;5778;47.856;12.154;2022-09-30T03:00:14;95505.09;;;8.98;100.00
11444;BME280;5778;47.856;12.154;2022-09-30T03:02:42;95500.06;;;8.97;100.00
11444;BME280;5778;47.856;12.154;2022-09-30T03:05:09;95503.50;;;8.92;100.00
11444;BME280;5778;47.856;12.154;2022-09-30T03:11:27;95512.19;;;8.78;100.00
11444;BME280;5778;47.856;12.154;2022-09-30T03:14:15;95520.69;;;8.85;100.00
11444;BME280;5778;47.856;12.154;2022-09-30T03:16:58;95534.50;;;8.92;100.00
11444;BME280;5778;47.856;12.154;2022-09-30T03:20:00;95536.09;;;8.93;100.00
11444;BME280;5778;47.856;12.154;2022-09-30T03:22:46;95526.28;;;8.93;100.00
11444;BME280;5778;47.856;12.154;2022-09-30T03:25:22;95530.28;;;8.96;100.00
11444;BME280;5778;47.856;12.154;2022-09-30T03:28:04;95527.09;;;8.94;100.00
11444;BME280;5778;47.856;12.154;2022-09-30T03:30:39;95529.78;;;8.99;100.00
11444;BME280;5778;47.856;12.154;2022-09-30T03:33:12;95521.25;;;8.97;100.00
11444;BME280;5778;47.856;12.154;2022-09-30T03:38:59;95530.78;;;8.93;100.00
11444;BME280;5778;47.856;12.154;2022-09-30T03:41:31;95529.75;;;8.94;100.00
11444;BME280;5778;47.856;12.154;2022-09-30T03:44:05;95534.78;;;8.95;100.00
11444;BME280;5778;47.856;12.154;2022-09-30T03:46:42;95532.41;;;8.94;100.00
11444;BME280;5778;47.856;12.154;2022-09-30T03:49:13;95530.78;;;8.93;100.00
11444;BME280;5778;47.856;12.154;2022-09-30T03:52:05;95526.06;;;9.00;100.00
11444;BME280;5778;47.856;12.154;2022-09-30T03:54:33;95533.47;;;8.98;100.00
11444;BME280;5778;47.856;12.154;2022-09-30T03:57:03;95535.06;;;8.99;100.00
11444;BME280;5778;47.856;12.154;2022-09-30T03:59:31;95532.41;;;8.94;100.00
11444;BME280;5778;47.856;12.154;2022-09-30T04:01:58;95546.41;;;8.84;100.00
11444;BME280;5778;47.856;12.154;2022-09-30T04:04:25;95541.06;;;8.79;100.00
11444;BME280;5778;47.856;12.154;2022-09-30T04:06:52;95551.94;;;8.73;100.00
11444;BME280;5778;47.856;12.154;2022-09-30T04:09:19;95548.19;;;8.64;100.00
11444;BME280;5778;47.856;12.154;2022-09-30T04:11:46;95558.81;;;8.69;100.00
11444;BME280;5778;47.856;12.154;2022-09-30T04:14:13;95551.91;;;8.68;100.00
11444;BME280;5778;47.856;12.154;2022-09-30T04:23:40;95557.78;;;8.75;100.00
11444;BME280;5778;47.856;12.154;2022-09-30T04:26:11;95553.00;;;8.82;100.00
11444;BME280;5778;47.856;12.154;2022-09-30T04:28:38;95552.75;;;8.83;100.00
11444;BME280;5778;47.856;12.154;2022-09-30T04:31:06;95558.91;;;8.89;100.00
11444;BME280;5778;47.856;12.154;2022-09-30T04:33:33;95561.81;;;8.87;100.00
11444;BME280;5778;47.856;12.154;2022-09-30T04:39:07;95573.75;;;8.90;100.00
11444;BME280;5778;47.856;12.154;2022-09-30T04:41:35;95587.50;;;8.87;100.00
11444;BME280;5778;47.856;12.154;2022-09-30T04:44:03;95597.56;;;8.80;100.00
11444;BME280;5778;47.856;12.154;2022-09-30T04:47:05;95597.81;;;8.78;100.00
11444;BME280;5778;47.856;12.154;2022-09-30T04:49:32;95606.03;;;8.77;100.00
11444;BME280;5778;47.856;12.154;2022-09-30T04:51:59;95611.34;;;8.77;100.00
11444;BME280;5778;47.856;12.154;2022-09-30T04:54:28;95615.28;;;8.69;100.00
11444;BME280;5778;47.856;12.154;2022-09-30T04:56:57;95614.97;;;8.61;100.00
11444;BME280;5778;47.856;12.154;2022-09-30T04:59:24;95614.13;;;8.55;100.00
11444;BME280;5778;47.856;12.154;2022-09-30T05:01:50;95620.50;;;8.59;100.00
11444;BME280;5778;47.856;12.154;2022-09-30T05:04:18;95620.25;;;8.61;100.00
11444;BME280;5778;47.856;12.154;2022-09-30T05:10:54;95625.28;;;8.62;100.00
11444;BME280;5778;47.856;12.154;2022-09-30T05:13:23;95622.91;;;8.66;100.00
11444;BME280;5778;47.856;12.154;2022-09-30T05:16:12;95628.78;;;8.68;100.00
11444;BME280;5778;47.856;12.154;2022-09-30T05:18:40;95629.28;;;8.65;100.00
11444;BME280;5778;47.856;12.154;2022-09-30T05:24:37;95632.13;;;8.53;100.00
11444;BME280;5778;47.856;12.154;2022-09-30T05:27:38;95630.31;;;8.59;100.00
11444;BME280;5778;47.856;12.154;2022-09-30T05:30:06;95633.50;;;8.61;100.00
11444;BME280;5778;47.856;12.154;2022-09-30T05:32:33;95636.44;;;8.64;100.00
11444;BME280;5778;47.856;12.154;2022-09-30T05:35:01;95637.25;;;8.70;100.00
11444;BME280;5778;47.856;12.154;2022-09-30T05:37:59;95639.13;;;8.69;100.00
11444;BME280;5778;47.856;12.154;2022-09-30T05:40:28;95637.50;;;8.68;100.00
11444;BME280;5778;47.856;12.154;2022-09-30T05:42:57;95639.41;;;8.73;100.00
11444;BME280;5778;47.856;12.154;2022-09-30T05:45:24;95647.84;;;8.70;100.00
11444;BME280;5778;47.856;12.154;2022-09-30T05:47:52;95650.53;;;8.75;100.00
11444;BME280;5778;47.856;12.154;2022-09-30T05:53:42;95646.84;;;8.81;100.00
11444;BME280;5778;47.856;12.154;2022-09-30T05:59:20;95647.44;;;8.93;100.00
11444;BME280;5778;47.856;12.154;2022-09-30T06:01:47;95649.88;;;8.99;100.00
11444;BME280;5778;47.856;12.154;2022-09-30T06:10:33;95654.00;;;9.27;100.00
11444;BME280;5778;47.856;12.154;2022-09-30T06:13:01;95659.84;;;9.34;100.00
11444;BME280;5778;47.856;12.154;2022-09-30T06:15:30;95666.25;;;9.38;100.00
11444;BME280;5778;47.856;12.154;2022-09-30T06:17:58;95672.91;;;9.45;100.00
11444;BME280;5778;47.856;12.154;2022-09-30T06:20:25;95677.91;;;9.42;100.00
11444;BME280;5778;47.856;12.154;2022-09-30T06:22:53;95686.16;;;9.40;100.00
11444;BME280;5778;47.856;12.154;2022-09-30T06:25:20;95689.59;;;9.46;100.00
11444;BME280;5778;47.856;12.154;2022-09-30T06:30:55;95687.28;;;9.64;100.00
11444;BME280;5778;47.856;12.154;2022-09-30T06:33:22;95683.59;;;9.75;100.00
11444;BME280;5778;47.856;12.154;2022-09-30T06:36:04;95682.31;;;9.88;100.00
11444;BME280;5778;47.856;12.154;2022-09-30T06:38:32;95688.22;;;10.15;100.00
11444;BME280;5778;47.856;12.154;2022-09-30T06:43:45;95686.88;;;10.47;100.00
11444;BME280;5778;47.856;12.154;2022-09-30T06:53:09;95681.31;;;10.44;100.00
11444;BME280;5778;47.856;12.154;2022-09-30T06:55:37;95677.31;;;10.31;100.00
11444;BME280;5778;47.856;12.154;2022-09-30T06:58:06;95677.88;;;10.38;100.00
11444;BME280;5778;47.856;12.154;2022-09-30T07:00:36;95675.47;;;10.47;100.00
11444;BME280;5778;47.856;12.154;2022-09-30T07:03:04;95685.31;;;10.56;100.00
11444;BME280;5778;47.856;12.154;2022-09-30T07:05:34;95680.50;;;10.58;100.00
11444;BME280;5778;47.856;12.154;2022-09-30T07:08:02;95685.56;;;10.70;100.00
11444;BME280;5778;47.856;12.154;2022-09-30T07:10:31;95677.56;;;10.85;100.00
11444;BME280;5778;47.856;12.154;2022-09-30T07:12:59;95682.34;;;10.88;100.00
11444;BME280;5778;47.856;12.154;2022-09-30T07:15:27;95681.81;;;10.81;100.00
11444;BME280;5778;47.856;12.154;2022-09-30T07:17:54;95684.97;;;10.98;100.00
11444;BME280;5778;47.856;12.154;2022-09-30T07:20:27;95689.22;;;10.99;100.00
11444;BME280;5778;47.856;12.154;2022-09-30T07:22:54;95683.84;;;11.29;100.00
11444;BME280;5778;47.856;12.154;2022-09-30T07:25:22;95694.91;;;11.66;100.00
11444;BME280;5778;47.856;12.154;2022-09-30T07:27:51;95693.56;;;11.58;100.00
11444;BME280;5778;47.856;12.154;2022-09-30T07:30:19;95689.34;;;11.47;100.00
11444;BME280;5778;47.856;12.154;2022-09-30T07:32:46;95686.16;;;11.40;100.00
11444;BME280;5778;47.856;12.154;2022-09-30T07:35:13;95691.19;;;11.52;100.00
11444;BME280;5778;47.856;12.154;2022-09-30T07:37:43;95686.97;;;12.04;100.00
11444;BME280;5778;47.856;12.154;2022-09-30T07:40:10;95685.31;;;12.47;100.00
11444;BME280;5778;47.856;12.154;2022-09-30T07:42:39;95683.72;;;12.46;100.00
11444;BME280;5778;47.856;12.154;2022-09-30T07:45:12;95679.69;;;12.82;100.00
11444;BME280;5778;47.856;12.154;2022-09-30T07:48:06;95683.47;;;12.76;100.00
11444;BME280;5778;47.856;12.154;2022-09-30T07:51:22;95682.31;;;12.87;100.00
11444;BME280;5778;47.856;12.154;2022-09-30T07:53:51;95679.78;;;12.72;100.00
11444;BME280;5778;47.856;12.154;2022-09-30T07:56:19;95689.25;;;12.54;100.00
11444;BME280;5778;47.856;12.154;2022-09-30T07:58:53;95680.09;;;12.37;100.00
11444;BME280;5778;47.856;12.154;2022-09-30T08:01:23;95679.91;;;12.57;100.00
11444;BME280;5778;47.856;12.154;2022-09-30T08:03:52;95684.47;;;12.56;100.00
11444;BME280;5778;47.856;12.154;2022-09-30T08:06:50;95697.91;;;12.75;100.00
11444;BME280;5778;47.856;12.154;2022-09-30T08:09:19;95694.25;;;12.66;100.00
11444;BME280;5778;47.856;12.154;2022-09-30T08:11:47;95702.81;;;12.58;100.00
11444;BME280;5778;47.856;12.154;2022-09-30T08:14:16;95696.94;;;11.84;100.00
11444;BME280;5778;47.856;12.154;2022-09-30T08:16:49;95692.91;;;11.91;100.00
11444;BME280;5778;47.856;12.154;2022-09-30T08:19:18;95704.47;;;11.72;100.00
11444;BME280;5778;47.856;12.154;2022-09-30T08:21:53;95706.91;;;12.12;100.00
11444;BME280;5778;47.856;12.154;2022-09-30T08:24:22;95716.00;;;12.06;100.00
11444;BME280;5778;47.856;12.154;2022-09-30T08:26:58;95715.44;;;12.09;100.00
11444;BME280;5778;47.856;12.154;2022-09-30T08:29:25;95716.97;;;12.20;100.00
11444;BME280;5778;47.856;12.154;2022-09-30T08:31:53;95721.13;;;12.36;100.00
11444;BME280;5778;47.856;12.154;2022-09-30T08:34:20;95717.75;;;12.64;100.00
11444;BME280;5778;47.856;12.154;2022-09-30T08:39:57;95728.84;;;13.33;100.00
11444;BME280;5778;47.856;12.154;2022-09-30T08:42:36;95740.00;;;13.40;100.00
11444;BME280;5778;47.856;12.154;2022-09-30T08:45:17;95740.47;;;13.47;100.00
11444;BME280;5778;47.856;12.154;2022-09-30T08:47:59;95742.09;;;13.43;100.00
11444;BME280;5778;47.856;12.154;2022-09-30T08:50:44;95751.03;;;13.57;100.00
11444;BME280;5778;47.856;12.154;2022-09-30T08:53:21;95747.22;;;13.63;100.00
11444;BME280;5778;47.856;12.154;2022-09-30T08:55:50;95751.31;;;13.79;100.00
11444;BME280;5778;47.856;12.154;2022-09-30T08:58:24;95750.56;;;13.73;100.00
11444;BME280;5778;47.856;12.154;2022-09-30T09:00:54;95754.59;;;13.71;100.00
11444;BME280;5778;47.856;12.154;2022-09-30T09:03:27;95751.22;;;13.89;100.00
11444;BME280;5778;47.856;12.154;2022-09-30T09:06:15;95754.16;;;13.87;100.00
11444;BME280;5778;47.856;12.154;2022-09-30T09:09:17;95758.28;;;14.22;100.00
11444;BME280;5778;47.856;12.154;2022-09-30T09:12:00;95756.22;;;14.14;100.00
11444;BME280;5778;47.856;12.154;2022-09-30T09:14:42;95759.81;;;14.04;100.00
11444;BME280;5778;47.856;12.154;2022-09-30T09:17:51;95765.19;;;14.78;100.00
11444;BME280;5778;47.856;12.154;2022-09-30T09:20:42;95767.59;;;14.80;100.00
11444;BME280;5778;47.856;12.154;2022-09-30T09:23:13;95765.38;;;14.68;100.00
11444;BME280;5778;47.856;12.154;2022-09-30T09:26:07;95769.09;;;14.12;100.00
11444;BME280;5778;47.856;12.154;2022-09-30T09:28:39;95762.63;;;13.71;100.00
11444;BME280;5778;47.856;12.154;2022-09-30T09:31:12;95766.75;;;13.58;100.00
11444;BME280;5778;47.856;12.154;2022-09-30T09:33:41;95767.03;;;13.62;100.00
11444;BME280;5778;47.856;12.154;2022-09-30T09:36:23;95768.72;;;13.76;100.00
11444;BME280;5778;47.856;12.154;2022-09-30T09:39:06;95764.88;;;14.06;100.00
11444;BME280;5778;47.856;12.154;2022-09-30T09:41:41;95770.56;;;13.99;100.00
11444;BME280;5778;47.856;12.154;2022-09-30T09:44:18;95769.81;;;13.94;100.00
11444;BME280;5778;47.856;12.154;2022-09-30T09:47:04;95765.94;;;14.05;100.00
11444;BME280;5778;47.856;12.154;2022-09-30T09:49:33;95770.38;;;14.38;100.00
11444;BME280;5778;47.856;12.154;2022-09-30T09:52:27;95769.00;;;13.23;100.00
11444;BME280;5778;47.856;12.154;2022-09-30T09:54:58;95764.38;;;13.33;100.00
11444;BME280;5778;47.856;12.154;2022-09-30T09:58:03;95769.53;;;13.25;100.00
11444;BME280;5778;47.856;12.154;2022-09-30T10:00:30;95772.28;;;13.67;100.00
11444;BME280;5778;47.856;12.154;2022-09-30T10:03:16;95770.22;;;14.06;100.00
11444;BME280;5778;47.856;12.154;2022-09-30T10:06:03;95772.59;;;14.49;100.00
11444;BME280;5778;47.856;12.154;2022-09-30T10:08:34;95766.81;;;14.00;100.00
11444;BME280;5778;47.856;12.154;2022-09-30T10:11:04;95766.69;;;14.34;100.00
11444;BME280;5778;47.856;12.154;2022-09-30T10:13:40;95763.69;;;14.72;100.00
11444;BME280;5778;47.856;12.154;2022-09-30T10:16:35;95757.31;;;15.19;100.00
11444;BME280;5778;47.856;12.154;2022-09-30T10:19:03;95749.38;;;14.82;100.00
11444;BME280;5778;47.856;12.154;2022-09-30T10:21:38;95750.63;;;14.34;100.00
11444;BME280;5778;47.856;12.154;2022-09-30T10:24:18;95743.25;;;14.63;100.00
11444;BME280;5778;47.856;12.154;2022-09-30T10:26:46;95723.97;;;14.05;100.00
11444;BME280;5778;47.856;12.154;2022-09-30T10:29:25;95741.66;;;14.25;100.00
11444;BME280;5778;47.856;12.154;2022-09-30T10:31:52;95742.41;;;14.49;100.00
11444;BME280;5778;47.856;12.154;2022-09-30T10:34:24;95744.31;;;14.25;100.00
11444;BME280;5778;47.856;12.154;2022-09-30T10:36:54;95755.72;;;14.67;100.00
11444;BME280;5778;47.856;12.154;2022-09-30T10:39:25;95766.94;;;15.20;100.00
11444;BME280;5778;47.856;12.154;2022-09-30T10:42:00;95782.19;;;15.38;100.00
11444;BME280;5778;47.856;12.154;2022-09-30T10:44:28;95787.38;;;15.48;100.00
11444;BME280;5778;47.856;12.154;2022-09-30T10:47:02;95794.81;;;15.51;100.00
11444;BME280;5778;47.856;12.154;2022-09-30T10:49:35;95805.50;;;15.37;100.00
11444;BME280;5778;47.856;12.154;2022-09-30T10:52:03;95798.13;;;15.29;100.00
11444;BME280;5778;47.856;12.154;2022-09-30T10:54:45;95807.72;;;14.98;100.00
11444;BME280;5778;47.856;12.154;2022-09-30T10:57:17;95813.88;;;14.99;100.00
11444;BME280;5778;47.856;12.154;2022-09-30T10:59:45;95812.06;;;14.76;100.00
11444;BME280;5778;47.856;12.154;2022-09-30T11:02:21;95811.44;;;14.84;100.00
11444;BME280;5778;47.856;12.154;2022-09-30T11:04:56;95810.47;;;14.93;100.00
11444;BME280;5778;47.856;12.154;2022-09-30T11:07:37;95801.13;;;15.09;100.00
11444;BME280;5778;47.856;12.154;2022-09-30T11:10:20;95805.78;;;15.04;100.00
11444;BME280;5778;47.856;12.154;2022-09-30T11:12:55;95780.22;;;15.25;100.00
11444;BME280;5778;47.856;12.154;2022-09-30T11:15:29;95785.66;;;15.38;100.00
11444;BME280;5778;47.856;12.154;2022-09-30T11:18:02;95782.09;;;15.11;100.00
11444;BME280;5778;47.856;12.154;2022-09-30T11:20:48;95783.91;;;15.29;100.00
11444;BME280;5778;47.856;12.154;2022-09-30T11:23:20;95788.66;;;15.37;100.00
11444;BME280;5778;47.856;12.154;2022-09-30T11:26:02;95800.81;;;15.61;100.00
11444;BME280;5778;47.856;12.154;2022-09-30T11:28:45;95804.97;;;15.54;100.00
11444;BME280;5778;47.856;12.154;2022-09-30T11:31:24;95814.84;;;15.40;100.00
11444;BME280;5778;47.856;12.154;2022-09-30T11:34:03;95817.75;;;15.57;100.00
11444;BME280;5778;47.856;12.154;2022-09-30T11:36:56;95812.91;;;15.59;100.00
11444;BME280;5778;47.856;12.154;2022-09-30T11:39:43;95801.59;;;15.62;100.00
11444;BME280;5778;47.856;12.154;2022-09-30T11:42:23;95790.88;;;15.62;100.00
11444;BME280;5778;47.856;12.154;2022-09-30T11:44:59;95789.09;;;15.98;100.00
11444;BME280;5778;47.856;12.154;2022-09-30T11:47:45;95787.50;;;16.24;100.00
11444;BME280;5778;47.856;12.154;2022-09-30T11:50:41;95782.88;;;15.43;100.00
11444;BME280;5778;47.856;12.154;2022-09-30T11:53:21;95796.91;;;15.54;100.00
11444;BME280;5778;47.856;12.154;2022-09-30T11:56:22;95808.19;;;14.87;100.00
11444;BME280;5778;47.856;12.154;2022-09-30T11:58:55;95805.78;;;15.04;100.00
11444;BME280;5778;47.856;12.154;2022-09-30T12:01:27;95810.41;;;14.61;100.00
11444;BME280;5778;47.856;12.154;2022-09-30T12:04:00;95815.50;;;14.63;100.00
11444;BME280;5778;47.856;12.154;2022-09-30T12:06:33;95815.44;;;14.02;100.00
11444;BME280;5778;47.856;12.154;2022-09-30T12:09:07;95826.28;;;13.35;100.00
11444;BME280;5778;47.856;12.154;2022-09-30T12:11:40;95828.16;;;13.40;100.00
11444;BME280;5778;47.856;12.154;2022-09-30T12:14:15;95834.13;;;13.55;100.00
11444;BME280;5778;47.856;12.154;2022-09-30T12:16:45;95838.22;;;13.48;100.00
11444;BME280;5778;47.856;12.154;2022-09-30T12:19:19;95831.53;;;13.74;100.00
11444;BME280;5778;47.856;12.154;2022-09-30T12:21:53;95832.88;;;13.48;100.00
11444;BME280;5778;47.856;12.154;2022-09-30T12:24:29;95828.38;;;13.67;100.00
11444;BME280;5778;47.856;12.154;2022-09-30T12:26:58;95824.84;;;14.00;100.00
11444;BME280;5778;47.856;12.154;2022-09-30T12:29:30;95833.88;;;14.27;100.00
11444;BME280;5778;47.856;12.154;2022-09-30T12:32:47;95828.56;;;14.46;100.00
11444;BME280;5778;47.856;12.154;2022-09-30T12:35:47;95830.69;;;14.49;100.00
11444;BME280;5778;47.856;12.154;2022-09-30T12:38:32;95829.28;;;14.09;100.00
11444;BME280;5778;47.856;12.154;2022-09-30T12:41:18;95826.50;;;13.96;100.00
11444;BME280;5778;47.856;12.154;2022-09-30T12:44:25;95828.19;;;13.87;100.00
11444;BME280;5778;47.856;12.154;2022-09-30T12:47:06;95834.56;;;14.14;100.00
11444;BME280;5778;47.856;12.154;2022-09-30T12:49:40;95827.91;;;14.54;100.00
11444;BME280;5778;47.856;12.154;2022-09-30T12:52:13;95829.59;;;14.68;100.00
11444;BME280;5778;47.856;12.154;2022-09-30T12:54:46;95829.22;;;14.93;100.00
11444;BME280;5778;47.856;12.154;2022-09-30T12:57:19;95823.53;;;14.81;100.00
11444;BME280;5778;47.856;12.154;2022-09-30T12:59:53;95821.78;;;14.53;100.00
11444;BME280;5778;47.856;12.154;2022-09-30T13:02:30;95824.44;;;15.09;100.00
11444;BME280;5778;47.856;12.154;2022-09-30T13:08:08;95811.31;;;15.58;100.00
11444;BME280;5778;47.856;12.154;2022-09-30T13:10:44;95811.09;;;15.54;100.00
11444;BME280;5778;47.856;12.154;2022-09-30T13:13:21;95812.53;;;15.79;100.00
11444;BME280;5778;47.856;12.154;2022-09-30T13:15:49;95808.75;;;15.66;100.00
11444;BME280;5778;47.856;12.154;2022-09-30T13:21:23;95805.75;;;16.35;100.00
11444;BME280;5778;47.856;12.154;2022-09-30T13:23:52;95801.88;;;16.55;100.00
11444;BME280;5778;47.856;12.154;2022-09-30T13:26:31;95802.56;;;17.62;100.00
11444;BME280;5778;47.856;12.154;2022-09-30T13:32:08;95793.63;;;17.75;100.00
11444;BME280;5778;47.856;12.154;2022-09-30T13:34:53;95796.00;;;17.46;100.00
11444;BME280;5778;47.856;12.154;2022-09-30T13:38:09;95796.28;;;17.00;100.00
11444;BME280;5778;47.856;12.154;2022-09-30T13:40:39;95792.53;;;16.88;100.00
11444;BME280;5778;47.856;12.154;2022-09-30T13:43:09;95794.22;;;16.62;100.00
11444;BME280;5778;47.856;12.154;2022-09-30T13:45:41;95789.56;;;16.27;100.00
11444;BME280;5778;47.856;12.154;2022-09-30T13:48:13;95788.38;;;16.33;100.00
11444;BME280;5778;47.856;12.154;2022-09-30T13:50:45;95792.44;;;16.30;100.00
11444;BME280;5778;47.856;12.154;2022-09-30T13:53:19;95799.22;;;16.14;100.00
11444;BME280;5778;47.856;12.154;2022-09-30T13:55:49;95798.06;;;15.93;100.00
11444;BME280;5778;47.856;12.154;2022-09-30T13:58:37;95801.41;;;15.72;100.00
11444;BME280;5778;47.856;12.154;2022-09-30T14:01:13;95807.84;;;15.71;100.00
11444;BME280;5778;47.856;12.154;2022-09-30T14:04:00;95816.66;;;15.44;100.00
11444;BME280;5778;47.856;12.154;2022-09-30T14:06:41;95814.63;;;15.36;100.00
11444;BME280;5778;47.856;12.154;2022-09-30T14:09:33;95811.06;;;15.41;100.00
11444;BME280;5778;47.856;12.154;2022-09-30T14:12:18;95818.16;;;15.32;100.00
11444;BME280;5778;47.856;12.154;2022-09-30T14:15:06;95814.63;;;15.36;100.00
11444;BME280;5778;47.856;12.154;2022-09-30T14:18:16;95822.59;;;15.23;100.00
11444;BME280;5778;47.856;12.154;2022-09-30T14:21:03;95824.25;;;15.19;100.00
11444;BME280;5778;47.856;12.154;2022-09-30T14:23:34;95833.31;;;15.23;100.00
11444;BME280;5778;47.856;12.154;2022-09-30T14:26:14;95827.31;;;15.31;100.00
11444;BME280;5778;47.856;12.154;2022-09-30T14:28:50;95827.19;;;15.04;100.00
11444;BME280;5778;47.856;12.154;2022-09-30T14:31:19;95833.03;;;15.24;100.00
11444;BME280;5778;47.856;12.154;2022-09-30T14:33:47;95834.78;;;15.34;100.00
11444;BME280;5778;47.856;12.154;2022-09-30T14:36:19;95831.94;;;15.44;100.00
11444;BME280;5778;47.856;12.154;2022-09-30T14:38:50;95833.03;;;15.43;100.00
11444;BME280;5778;47.856;12.154;2022-09-30T14:41:21;95832.44;;;15.27;100.00
11444;BME280;5778;47.856;12.154;2022-09-30T14:43:52;95835.56;;;15.16;100.00
11444;BME280;5778;47.856;12.154;2022-09-30T14:46:28;95834.84;;;15.10;100.00
11444;BME280;5778;47.856;12.154;2022-09-30T14:48:58;95832.28;;;14.87;100.00
11444;BME280;5778;47.856;12.154;2022-09-30T14:51:34;95835.38;;;14.94;100.00
11444;BME280;5778;47.856;12.154;2022-09-30T14:54:01;95827.75;;;15.38;100.00
11444;BME280;5778;47.856;12.154;2022-09-30T14:56:34;95829.63;;;15.19;100.00
11444;BME280;5778;47.856;12.154;2022-09-30T14:59:15;95830.97;;;15.67;100.00
11444;BME280;5778;47.856;12.154;2022-09-30T15:01:44;95836.25;;;15.72;100.00
11444;BME280;5778;47.856;12.154;2022-09-30T15:04:15;95832.38;;;15.78;100.00
11444;BME280;5778;47.856;12.154;2022-09-30T15:06:45;95835.34;;;15.63;100.00
11444;BME280;5778;47.856;12.154;2022-09-30T15:09:16;95840.28;;;15.56;100.00
11444;BME280;5778;47.856;12.154;2022-09-30T15:11:45;95837.28;;;15.44;100.00